sensor_id;sensor_type;location;lat;lon;timestamp;temperature;humidity
22698;DHT22;11516;51.612;7.510;2023-03-19T00:01:19;9.10;99.90
22698;DHT22;11516;51.612;7.510;2023-03-19T00:03:44;9.10;99.90
22698;DHT22;11516;51.612;7.510;2023-03-19T00:06:10;9.10;99.90
22698;DHT22;11516;51.612;7.510;2023-03-19T00:08:36;9.00;99.90
22698;DHT22;11516;51.612;7.510;2023-03-19T00:11:06;9.00;99.90
22698;DHT22;11516;51.612;7.510;2023-03-19T00:13:32;9.00;99.90
22698;DHT22;11516;51.612;7.510;2023-03-19T00:15:57;9.10;99.90
22698;DHT22;11516;51.612;7.510;2023-03-19T00:18:23;9.00;99.90
22698;DHT22;11516;51.612;7.510;2023-03-19T00:20:49;9.10;99.90
22698;DHT22;11516;51.612;7.510;2023-03-19T00:23:15;9.20;99.90
22698;DHT22;11516;51.612;7.510;2023-03-19T00:25:40;9.20;99.90
22698;DHT22;11516;51.612;7.510;2023-03-19T00:28:06;9.20;99.90
22698;DHT22;11516;51.612;7.510;2023-03-19T00:30:32;9.20;99.90
22698;DHT22;11516;51.612;7.510;2023-03-19T00:32:58;9.20;99.90
22698;DHT22;11516;51.612;7.510;2023-03-19T00:35:23;9.20;99.90
22698;DHT22;11516;51.612;7.510;2023-03-19T00:37:49;9.30;99.90
22698;DHT22;11516;51.612;7.510;2023-03-19T00:40:14;9.20;99.90
22698;DHT22;11516;51.612;7.510;2023-03-19T00:42:40;9.20;99.90
22698;DHT22;11516;51.612;7.510;2023-03-19T00:45:09;9.20;99.90
22698;DHT22;11516;51.612;7.510;2023-03-19T00:47:35;9.20;99.90
22698;DHT22;11516;51.612;7.510;2023-03-19T00:50:02;9.20;99.90
22698;DHT22;11516;51.612;7.510;2023-03-19T00:52:28;9.20;99.90
22698;DHT22;11516;51.612;7.510;2023-03-19T00:54:54;9.20;99.90
22698;DHT22;11516;51.612;7.510;2023-03-19T00:57:19;9.10;99.90
22698;DHT22;11516;51.612;7.510;2023-03-19T00:59:45;9.00;99.90
22698;DHT22;11516;51.612;7.510;2023-03-19T01:02:11;9.10;99.90
22698;DHT22;11516;51.612;7.510;2023-03-19T01:04:36;9.10;99.90
22698;DHT22;11516;51.612;7.510;2023-03-19T01:07:02;9.10;99.90
22698;DHT22;11516;51.612;7.510;2023-03-19T01:09:28;9.20;99.90
22698;DHT22;11516;51.612;7.510;2023-03-19T01:11:53;9.20;99.90
22698;DHT22;11516;51.612;7.510;2023-03-19T01:14:19;9.30;99.90
22698;DHT22;11516;51.612;7.510;2023-03-19T01:16:44;9.30;99.90
22698;DHT22;11516;51.612;7.510;2023-03-19T01:19:10;9.40;99.90
22698;DHT22;11516;51.612;7.510;2023-03-19T01:21:37;9.40;99.90
22698;DHT22;11516;51.612;7.510;2023-03-19T01:24:02;9.40;99.90
22698;DHT22;11516;51.612;7.510;2023-03-19T01:26:28;9.40;99.90
22698;DHT22;11516;51.612;7.510;2023-03-19T01:28:54;9.40;99.90
22698;DHT22;11516;51.612;7.510;2023-03-19T01:31:20;9.30;99.90
22698;DHT22;11516;51.612;7.510;2023-03-19T01:33:46;9.20;99.90
22698;DHT22;11516;51.612;7.510;2023-03-19T01:36:12;9.10;99.90
22698;DHT22;11516;51.612;7.510;2023-03-19T01:38:38;9.00;99.90
22698;DHT22;11516;51.612;7.510;2023-03-19T01:41:03;9.00;99.90
22698;DHT22;11516;51.612;7.510;2023-03-19T01:43:30;9.00;99.90
22698;DHT22;11516;51.612;7.510;2023-03-19T01:46:07;8.90;99.90
22698;DHT22;11516;51.612;7.510;2023-03-19T01:48:49;8.80;99.90
22698;DHT22;11516;51.612;7.510;2023-03-19T01:51:17;8.80;99.90
22698;DHT22;11516;51.612;7.510;2023-03-19T01:53:49;8.70;99.90
22698;DHT22;11516;51.612;7.510;2023-03-19T01:56:29;8.70;99.90
22698;DHT22;11516;51.612;7.510;2023-03-19T01:59:00;8.60;99.90
22698;DHT22;11516;51.612;7.510;2023-03-19T02:01:27;8.70;99.90
22698;DHT22;11516;51.612;7.510;2023-03-19T02:03:55;8.60;99.90
22698;DHT22;11516;51.612;7.510;2023-03-19T02:06:22;8.60;99.90
22698;DHT22;11516;51.612;7.510;2023-03-19T02:08:49;8.60;99.90
22698;DHT22;11516;51.612;7.510;2023-03-19T02:11:15;8.60;99.90
22698;DHT22;11516;51.612;7.510;2023-03-19T02:13:42;8.60;99.90
22698;DHT22;11516;51.612;7.510;2023-03-19T02:16:07;8.50;99.90
22698;DHT22;11516;51.612;7.510;2023-03-19T02:18:34;8.40;99.90
22698;DHT22;11516;51.612;7.510;2023-03-19T02:21:09;8.40;99.90
22698;DHT22;11516;51.612;7.510;2023-03-19T02:23:56;8.30;99.90
22698;DHT22;11516;51.612;7.510;2023-03-19T02:26:26;8.30;99.90
22698;DHT22;11516;51.612;7.510;2023-03-19T02:28:53;8.30;99.90
22698;DHT22;11516;51.612;7.510;2023-03-19T02:31:19;8.30;99.90
22698;DHT22;11516;51.612;7.510;2023-03-19T02:34:31;8.30;99.90
22698;DHT22;11516;51.612;7.510;2023-03-19T02:36:55;8.30;99.90
22698;DHT22;11516;51.612;7.510;2023-03-19T02:39:28;8.30;99.90
22698;DHT22;11516;51.612;7.510;2023-03-19T02:41:57;8.20;99.90
22698;DHT22;11516;51.612;7.510;2023-03-19T02:44:22;8.20;99.90
22698;DHT22;11516;51.612;7.510;2023-03-19T02:46:48;8.20;99.90
22698;DHT22;11516;51.612;7.510;2023-03-19T02:49:14;8.10;99.90
22698;DHT22;11516;51.612;7.510;2023-03-19T02:51:39;8.10;99.90
22698;DHT22;11516;51.612;7.510;2023-03-19T02:54:06;8.10;99.90
22698;DHT22;11516;51.612;7.510;2023-03-19T02:56:32;8.40;99.90
22698;DHT22;11516;51.612;7.510;2023-03-19T02:58:58;8.00;99.90
22698;DHT22;11516;51.612;7.510;2023-03-19T03:01:23;8.00;99.90
22698;DHT22;11516;51.612;7.510;2023-03-19T03:03:49;8.00;99.90
22698;DHT22;11516;51.612;7.510;2023-03-19T03:06:14;8.10;99.90
22698;DHT22;11516;51.612;7.510;2023-03-19T03:08:42;8.10;99.90
22698;DHT22;11516;51.612;7.510;2023-03-19T03:11:07;8.00;99.90
22698;DHT22;11516;51.612;7.510;2023-03-19T03:13:33;8.00;99.90
22698;DHT22;11516;51.612;7.510;2023-03-19T03:15:59;8.00;99.90
22698;DHT22;11516;51.612;7.510;2023-03-19T03:18:24;8.00;99.90
22698;DHT22;11516;51.612;7.510;2023-03-19T03:20:51;8.00;99.90
22698;DHT22;11516;51.612;7.510;2023-03-19T03:23:18;8.00;99.90
22698;DHT22;11516;51.612;7.510;2023-03-19T03:25:43;8.00;99.90
22698;DHT22;11516;51.612;7.510;2023-03-19T03:28:09;8.00;99.90
22698;DHT22;11516;51.612;7.510;2023-03-19T03:30:36;7.90;99.90
22698;DHT22;11516;51.612;7.510;2023-03-19T03:33:02;8.00;99.90
22698;DHT22;11516;51.612;7.510;2023-03-19T03:35:28;7.90;99.90
22698;DHT22;11516;51.612;7.510;2023-03-19T03:37:53;8.00;99.90
22698;DHT22;11516;51.612;7.510;2023-03-19T03:40:19;7.90;99.90
22698;DHT22;11516;51.612;7.510;2023-03-19T03:42:45;7.90;99.90
22698;DHT22;11516;51.612;7.510;2023-03-19T03:45:11;7.90;99.90
22698;DHT22;11516;51.612;7.510;2023-03-19T03:47:37;7.90;99.90
22698;DHT22;11516;51.612;7.510;2023-03-19T03:50:04;7.90;99.90
22698;DHT22;11516;51.612;7.510;2023-03-19T03:52:30;8.00;99.90
22698;DHT22;11516;51.612;7.510;2023-03-19T03:54:58;8.10;99.90
22698;DHT22;11516;51.612;7.510;2023-03-19T03:57:24;8.10;99.90
22698;DHT22;11516;51.612;7.510;2023-03-19T03:59:50;8.10;99.90
22698;DHT22;11516;51.612;7.510;2023-03-19T04:02:15;8.10;99.90
22698;DHT22;11516;51.612;7.510;2023-03-19T04:04:41;8.10;99.90
22698;DHT22;11516;51.612;7.510;2023-03-19T04:07:07;8.20;99.90
22698;DHT22;11516;51.612;7.510;2023-03-19T04:09:33;8.20;99.90
22698;DHT22;11516;51.612;7.510;2023-03-19T04:11:58;8.20;99.90
22698;DHT22;11516;51.612;7.510;2023-03-19T04:14:25;8.20;99.90
22698;DHT22;11516;51.612;7.510;2023-03-19T04:16:51;8.30;99.90
22698;DHT22;11516;51.612;7.510;2023-03-19T04:19:17;8.30;99.90
22698;DHT22;11516;51.612;7.510;2023-03-19T04:21:43;8.30;99.90
22698;DHT22;11516;51.612;7.510;2023-03-19T04:24:09;8.30;99.90
22698;DHT22;11516;51.612;7.510;2023-03-19T04:26:35;8.30;99.90
22698;DHT22;11516;51.612;7.510;2023-03-19T04:29:02;8.30;99.90
22698;DHT22;11516;51.612;7.510;2023-03-19T04:31:27;8.40;99.90
22698;DHT22;11516;51.612;7.510;2023-03-19T04:33:53;8.40;99.90
22698;DHT22;11516;51.612;7.510;2023-03-19T04:36:19;8.40;99.90
22698;DHT22;11516;51.612;7.510;2023-03-19T04:38:45;8.40;99.90
22698;DHT22;11516;51.612;7.510;2023-03-19T04:41:12;8.40;99.90
22698;DHT22;11516;51.612;7.510;2023-03-19T04:43:40;8.50;99.90
22698;DHT22;11516;51.612;7.510;2023-03-19T04:46:05;8.50;99.90
22698;DHT22;11516;51.612;7.510;2023-03-19T04:48:32;8.50;99.90
22698;DHT22;11516;51.612;7.510;2023-03-19T04:51:00;8.50;99.90
22698;DHT22;11516;51.612;7.510;2023-03-19T04:53:27;9.50;99.90
22698;DHT22;11516;51.612;7.510;2023-03-19T04:55:53;8.50;99.90
22698;DHT22;11516;51.612;7.510;2023-03-19T04:58:18;8.60;99.90
22698;DHT22;11516;51.612;7.510;2023-03-19T05:00:44;8.60;99.90
22698;DHT22;11516;51.612;7.510;2023-03-19T05:03:12;8.60;99.90
22698;DHT22;11516;51.612;7.510;2023-03-19T05:05:38;8.60;99.90
22698;DHT22;11516;51.612;7.510;2023-03-19T05:08:03;8.60;99.90
22698;DHT22;11516;51.612;7.510;2023-03-19T05:10:29;8.50;99.90
22698;DHT22;11516;51.612;7.510;2023-03-19T05:12:54;8.60;99.90
22698;DHT22;11516;51.612;7.510;2023-03-19T05:15:20;8.50;99.90
22698;DHT22;11516;51.612;7.510;2023-03-19T05:17:46;8.50;99.90
22698;DHT22;11516;51.612;7.510;2023-03-19T05:20:11;8.50;99.90
22698;DHT22;11516;51.612;7.510;2023-03-19T05:22:37;8.40;99.90
22698;DHT22;11516;51.612;7.510;2023-03-19T05:25:03;8.40;99.90
22698;DHT22;11516;51.612;7.510;2023-03-19T05:27:29;8.40;99.90
22698;DHT22;11516;51.612;7.510;2023-03-19T05:29:55;8.40;99.90
22698;DHT22;11516;51.612;7.510;2023-03-19T05:32:20;8.40;99.90
22698;DHT22;11516;51.612;7.510;2023-03-19T05:34:46;8.40;99.90
22698;DHT22;11516;51.612;7.510;2023-03-19T05:37:12;8.40;99.90
22698;DHT22;11516;51.612;7.510;2023-03-19T05:39:37;8.50;99.90
22698;DHT22;11516;51.612;7.510;2023-03-19T05:42:03;8.50;99.90
22698;DHT22;11516;51.612;7.510;2023-03-19T05:44:29;8.50;99.90
22698;DHT22;11516;51.612;7.510;2023-03-19T05:46:54;8.90;99.90
22698;DHT22;11516;51.612;7.510;2023-03-19T05:49:20;9.30;99.90
22698;DHT22;11516;51.612;7.510;2023-03-19T05:51:46;9.60;99.90
22698;DHT22;11516;51.612;7.510;2023-03-19T05:54:12;9.70;99.90
22698;DHT22;11516;51.612;7.510;2023-03-19T05:56:38;9.80;99.90
22698;DHT22;11516;51.612;7.510;2023-03-19T05:59:03;9.80;99.90
22698;DHT22;11516;51.612;7.510;2023-03-19T06:01:29;9.90;99.90
22698;DHT22;11516;51.612;7.510;2023-03-19T06:03:54;9.90;99.90
22698;DHT22;11516;51.612;7.510;2023-03-19T06:06:20;9.90;99.90
22698;DHT22;11516;51.612;7.510;2023-03-19T06:08:45;10.00;99.90
22698;DHT22;11516;51.612;7.510;2023-03-19T06:11:12;10.00;99.90
22698;DHT22;11516;51.612;7.510;2023-03-19T06:13:38;9.90;99.90
22698;DHT22;11516;51.612;7.510;2023-03-19T06:16:04;9.90;99.90
22698;DHT22;11516;51.612;7.510;2023-03-19T06:18:29;9.90;99.90
22698;DHT22;11516;51.612;7.510;2023-03-19T06:20:55;10.00;99.90
22698;DHT22;11516;51.612;7.510;2023-03-19T06:23:20;10.00;99.90
22698;DHT22;11516;51.612;7.510;2023-03-19T06:25:46;10.00;99.90
22698;DHT22;11516;51.612;7.510;2023-03-19T06:28:11;10.10;99.90
22698;DHT22;11516;51.612;7.510;2023-03-19T06:30:37;10.10;99.90
22698;DHT22;11516;51.612;7.510;2023-03-19T06:33:02;10.20;99.90
22698;DHT22;11516;51.612;7.510;2023-03-19T06:35:28;10.30;99.90
22698;DHT22;11516;51.612;7.510;2023-03-19T06:37:54;10.40;99.90
22698;DHT22;11516;51.612;7.510;2023-03-19T06:40:19;10.40;99.90
22698;DHT22;11516;51.612;7.510;2023-03-19T06:42:45;10.40;99.90
22698;DHT22;11516;51.612;7.510;2023-03-19T06:45:12;10.50;99.90
22698;DHT22;11516;51.612;7.510;2023-03-19T06:47:42;10.50;99.90
22698;DHT22;11516;51.612;7.510;2023-03-19T06:50:09;10.60;99.90
22698;DHT22;11516;51.612;7.510;2023-03-19T06:52:35;10.60;99.90
22698;DHT22;11516;51.612;7.510;2023-03-19T06:55:00;10.60;99.90
22698;DHT22;11516;51.612;7.510;2023-03-19T06:57:26;10.50;99.90
22698;DHT22;11516;51.612;7.510;2023-03-19T06:59:52;10.70;99.90
22698;DHT22;11516;51.612;7.510;2023-03-19T07:02:17;10.70;99.90
22698;DHT22;11516;51.612;7.510;2023-03-19T07:04:43;10.60;99.90
22698;DHT22;11516;51.612;7.510;2023-03-19T07:07:08;10.60;99.90
22698;DHT22;11516;51.612;7.510;2023-03-19T07:09:34;10.60;99.90
22698;DHT22;11516;51.612;7.510;2023-03-19T07:11:59;10.60;99.90
22698;DHT22;11516;51.612;7.510;2023-03-19T07:14:25;10.60;99.90
22698;DHT22;11516;51.612;7.510;2023-03-19T07:16:51;10.70;99.90
22698;DHT22;11516;51.612;7.510;2023-03-19T07:19:16;10.60;99.90
22698;DHT22;11516;51.612;7.510;2023-03-19T07:21:42;10.50;99.90
22698;DHT22;11516;51.612;7.510;2023-03-19T07:24:07;10.60;99.90
22698;DHT22;11516;51.612;7.510;2023-03-19T07:26:33;10.50;99.90
22698;DHT22;11516;51.612;7.510;2023-03-19T07:28:58;10.50;99.90
22698;DHT22;11516;51.612;7.510;2023-03-19T07:31:24;10.50;99.90
22698;DHT22;11516;51.612;7.510;2023-03-19T07:33:50;10.40;99.90
22698;DHT22;11516;51.612;7.510;2023-03-19T07:36:16;10.40;99.90
22698;DHT22;11516;51.612;7.510;2023-03-19T07:38:41;10.50;99.90
22698;DHT22;11516;51.612;7.510;2023-03-19T07:41:07;10.50;99.90
22698;DHT22;11516;51.612;7.510;2023-03-19T07:43:32;10.60;99.90
22698;DHT22;11516;51.612;7.510;2023-03-19T07:45:59;10.60;99.90
22698;DHT22;11516;51.612;7.510;2023-03-19T07:48:25;10.70;99.90
22698;DHT22;11516;51.612;7.510;2023-03-19T07:50:51;10.90;99.90
22698;DHT22;11516;51.612;7.510;2023-03-19T07:53:17;10.90;99.90
22698;DHT22;11516;51.612;7.510;2023-03-19T07:55:42;10.90;99.90
22698;DHT22;11516;51.612;7.510;2023-03-19T07:58:09;11.00;99.90
22698;DHT22;11516;51.612;7.510;2023-03-19T08:00:35;11.10;99.90
22698;DHT22;11516;51.612;7.510;2023-03-19T08:03:00;11.20;99.90
22698;DHT22;11516;51.612;7.510;2023-03-19T08:05:26;11.30;99.90
22698;DHT22;11516;51.612;7.510;2023-03-19T08:07:51;11.40;99.90
22698;DHT22;11516;51.612;7.510;2023-03-19T08:10:17;11.50;99.90
22698;DHT22;11516;51.612;7.510;2023-03-19T08:12:43;11.50;99.90
22698;DHT22;11516;51.612;7.510;2023-03-19T08:15:10;11.40;99.90
22698;DHT22;11516;51.612;7.510;2023-03-19T08:17:36;11.50;99.90
22698;DHT22;11516;51.612;7.510;2023-03-19T08:20:10;11.50;99.90
22698;DHT22;11516;51.612;7.510;2023-03-19T08:22:37;11.60;99.90
22698;DHT22;11516;51.612;7.510;2023-03-19T08:25:04;11.70;99.90
22698;DHT22;11516;51.612;7.510;2023-03-19T08:27:32;11.70;99.90
22698;DHT22;11516;51.612;7.510;2023-03-19T08:30:01;11.60;99.90
22698;DHT22;11516;51.612;7.510;2023-03-19T08:32:27;11.60;99.90
22698;DHT22;11516;51.612;7.510;2023-03-19T08:34:52;11.40;99.90
22698;DHT22;11516;51.612;7.510;2023-03-19T08:37:18;11.50;99.90
22698;DHT22;11516;51.612;7.510;2023-03-19T08:39:43;11.30;99.90
22698;DHT22;11516;51.612;7.510;2023-03-19T08:42:09;11.30;99.90
22698;DHT22;11516;51.612;7.510;2023-03-19T08:44:35;11.30;99.90
22698;DHT22;11516;51.612;7.510;2023-03-19T08:47:01;11.30;99.90
22698;DHT22;11516;51.612;7.510;2023-03-19T08:49:27;11.30;99.90
22698;DHT22;11516;51.612;7.510;2023-03-19T08:51:53;11.40;99.90
22698;DHT22;11516;51.612;7.510;2023-03-19T08:54:19;11.50;99.90
22698;DHT22;11516;51.612;7.510;2023-03-19T08:56:44;11.50;99.90
22698;DHT22;11516;51.612;7.510;2023-03-19T08:59:10;11.70;99.90
22698;DHT22;11516;51.612;7.510;2023-03-19T09:01:35;11.80;99.90
22698;DHT22;11516;51.612;7.510;2023-03-19T09:04:01;11.90;99.90
22698;DHT22;11516;51.612;7.510;2023-03-19T09:06:27;12.00;99.90
22698;DHT22;11516;51.612;7.510;2023-03-19T09:08:52;12.00;99.90
22698;DHT22;11516;51.612;7.510;2023-03-19T09:11:18;12.00;99.90
22698;DHT22;11516;51.612;7.510;2023-03-19T09:13:43;12.00;99.90
22698;DHT22;11516;51.612;7.510;2023-03-19T09:16:09;12.10;99.90
22698;DHT22;11516;51.612;7.510;2023-03-19T09:18:35;12.10;99.90
22698;DHT22;11516;51.612;7.510;2023-03-19T09:21:02;12.00;99.90
22698;DHT22;11516;51.612;7.510;2023-03-19T09:23:28;12.10;99.90
22698;DHT22;11516;51.612;7.510;2023-03-19T09:25:53;12.20;99.90
22698;DHT22;11516;51.612;7.510;2023-03-19T09:28:19;12.30;99.90
22698;DHT22;11516;51.612;7.510;2023-03-19T09:30:46;12.40;99.90
22698;DHT22;11516;51.612;7.510;2023-03-19T09:33:12;12.40;99.90
22698;DHT22;11516;51.612;7.510;2023-03-19T09:35:37;12.40;99.90
22698;DHT22;11516;51.612;7.510;2023-03-19T09:38:04;12.40;99.90
22698;DHT22;11516;51.612;7.510;2023-03-19T09:40:41;12.50;99.90
22698;DHT22;11516;51.612;7.510;2023-03-19T09:45:59;12.80;99.90
22698;DHT22;11516;51.612;7.510;2023-03-19T09:48:39;12.80;99.90
22698;DHT22;11516;51.612;7.510;2023-03-19T09:51:13;13.00;99.90
22698;DHT22;11516;51.612;7.510;2023-03-19T09:53:44;13.00;99.90
22698;DHT22;11516;51.612;7.510;2023-03-19T09:56:14;13.10;99.90
22698;DHT22;11516;51.612;7.510;2023-03-19T09:58:41;13.10;99.90
22698;DHT22;11516;51.612;7.510;2023-03-19T10:01:24;13.10;99.90
22698;DHT22;11516;51.612;7.510;2023-03-19T10:03:59;13.20;99.90
22698;DHT22;11516;51.612;7.510;2023-03-19T10:06:35;13.10;99.90
22698;DHT22;11516;51.612;7.510;2023-03-19T10:09:26;13.00;99.90
22698;DHT22;11516;51.612;7.510;2023-03-19T10:17:37;13.30;99.90
22698;DHT22;11516;51.612;7.510;2023-03-19T10:20:16;13.40;99.90
22698;DHT22;11516;51.612;7.510;2023-03-19T10:22:48;13.50;99.90
22698;DHT22;11516;51.612;7.510;2023-03-19T10:25:25;13.60;99.90
22698;DHT22;11516;51.612;7.510;2023-03-19T10:27:58;13.60;99.90
22698;DHT22;11516;51.612;7.510;2023-03-19T10:30:25;13.60;99.90
22698;DHT22;11516;51.612;7.510;2023-03-19T10:33:06;13.80;99.90
22698;DHT22;11516;51.612;7.510;2023-03-19T10:35:42;13.80;99.90
22698;DHT22;11516;51.612;7.510;2023-03-19T10:38:38;14.00;99.90
22698;DHT22;11516;51.612;7.510;2023-03-19T10:41:18;14.10;99.90
22698;DHT22;11516;51.612;7.510;2023-03-19T10:44:12;14.20;99.90
22698;DHT22;11516;51.612;7.510;2023-03-19T10:46:39;14.30;99.90
22698;DHT22;11516;51.612;7.510;2023-03-19T10:49:11;14.20;99.90
22698;DHT22;11516;51.612;7.510;2023-03-19T10:51:36;14.20;99.90
22698;DHT22;11516;51.612;7.510;2023-03-19T10:54:17;14.40;99.90
22698;DHT22;11516;51.612;7.510;2023-03-19T10:56:45;14.50;99.90
22698;DHT22;11516;51.612;7.510;2023-03-19T10:59:24;14.50;99.90
22698;DHT22;11516;51.612;7.510;2023-03-19T11:04:40;14.80;99.90
22698;DHT22;11516;51.612;7.510;2023-03-19T11:07:11;15.30;99.90
22698;DHT22;11516;51.612;7.510;2023-03-19T11:09:43;15.40;99.90
22698;DHT22;11516;51.612;7.510;2023-03-19T11:12:17;15.50;99.90
22698;DHT22;11516;51.612;7.510;2023-03-19T11:14:46;15.00;99.90
22698;DHT22;11516;51.612;7.510;2023-03-19T11:17:37;15.00;99.90
22698;DHT22;11516;51.612;7.510;2023-03-19T11:22:52;15.20;99.90
22698;DHT22;11516;51.612;7.510;2023-03-19T11:25:25;15.30;99.90
22698;DHT22;11516;51.612;7.510;2023-03-19T11:28:10;15.50;99.90
22698;DHT22;11516;51.612;7.510;2023-03-19T11:39:34;16.50;99.90
22698;DHT22;11516;51.612;7.510;2023-03-19T11:42:23;16.50;99.90
22698;DHT22;11516;51.612;7.510;2023-03-19T11:56:22;16.00;99.90
22698;DHT22;11516;51.612;7.510;2023-03-19T11:59:20;15.60;99.90
22698;DHT22;11516;51.612;7.510;2023-03-19T12:01:57;15.50;99.90
22698;DHT22;11516;51.612;7.510;2023-03-19T12:08:11;15.40;99.90
22698;DHT22;11516;51.612;7.510;2023-03-19T12:16:13;16.10;99.90
22698;DHT22;11516;51.612;7.510;2023-03-19T12:21:54;16.40;99.90
22698;DHT22;11516;51.612;7.510;2023-03-19T12:30:23;16.20;99.90
22698;DHT22;11516;51.612;7.510;2023-03-19T12:35:34;16.70;99.90
22698;DHT22;11516;51.612;7.510;2023-03-19T12:38:45;16.30;99.90
22698;DHT22;11516;51.612;7.510;2023-03-19T12:40:59;16.00;99.90
22698;DHT22;11516;51.612;7.510;2023-03-19T12:43:52;15.70;99.90
22698;DHT22;11516;51.612;7.510;2023-03-19T12:46:25;15.40;99.90
22698;DHT22;11516;51.612;7.510;2023-03-19T12:51:51;15.00;99.90
22698;DHT22;11516;51.612;7.510;2023-03-19T12:54:27;14.70;99.90
22698;DHT22;11516;51.612;7.510;2023-03-19T12:57:10;14.50;99.90
22698;DHT22;11516;51.612;7.510;2023-03-19T12:59:42;14.50;99.90
22698;DHT22;11516;51.612;7.510;2023-03-19T13:02:29;14.30;99.90
22698;DHT22;11516;51.612;7.510;2023-03-19T13:06:03;14.10;99.90
22698;DHT22;11516;51.612;7.510;2023-03-19T13:10:31;13.80;99.90
22698;DHT22;11516;51.612;7.510;2023-03-19T13:12:57;13.40;99.90
22698;DHT22;11516;51.612;7.510;2023-03-19T13:15:32;12.90;99.90
22698;DHT22;11516;51.612;7.510;2023-03-19T13:23:28;11.50;99.90
22698;DHT22;11516;51.612;7.510;2023-03-19T13:25:56;11.50;99.90
22698;DHT22;11516;51.612;7.510;2023-03-19T13:28:35;11.60;99.90
22698;DHT22;11516;51.612;7.510;2023-03-19T13:31:06;11.70;99.90
22698;DHT22;11516;51.612;7.510;2023-03-19T13:33:33;11.80;99.90
22698;DHT22;11516;51.612;7.510;2023-03-19T13:36:12;12.00;99.90
22698;DHT22;11516;51.612;7.510;2023-03-19T13:38:40;12.20;99.90
22698;DHT22;11516;51.612;7.510;2023-03-19T13:46:47;12.60;99.90
22698;DHT22;11516;51.612;7.510;2023-03-19T13:49:28;12.70;99.90
22698;DHT22;11516;51.612;7.510;2023-03-19T13:51:59;12.60;99.90
22698;DHT22;11516;51.612;7.510;2023-03-19T13:54:40;12.70;99.90
22698;DHT22;11516;51.612;7.510;2023-03-19T13:59:40;13.20;99.90
22698;DHT22;11516;51.612;7.510;2023-03-19T14:05:14;16.40;99.90
22698;DHT22;11516;51.612;7.510;2023-03-19T14:07:46;15.60;99.90
22698;DHT22;11516;51.612;7.510;2023-03-19T14:10:23;15.70;99.90
22698;DHT22;11516;51.612;7.510;2023-03-19T14:12:50;14.90;99.90
22698;DHT22;11516;51.612;7.510;2023-03-19T14:15:21;14.30;99.90
22698;DHT22;11516;51.612;7.510;2023-03-19T14:25:25;13.20;99.90
22698;DHT22;11516;51.612;7.510;2023-03-19T14:27:58;13.10;99.90
22698;DHT22;11516;51.612;7.510;2023-03-19T14:30:36;13.10;99.90
22698;DHT22;11516;51.612;7.510;2023-03-19T14:33:07;12.80;99.90
22698;DHT22;11516;51.612;7.510;2023-03-19T14:35:41;12.70;99.90
22698;DHT22;11516;51.612;7.510;2023-03-19T14:38:14;12.80;99.90
22698;DHT22;11516;51.612;7.510;2023-03-19T14:40:44;12.70;99.90
22698;DHT22;11516;51.612;7.510;2023-03-19T14:46:25;12.60;99.90
22698;DHT22;11516;51.612;7.510;2023-03-19T14:54:40;12.40;99.90
22698;DHT22;11516;51.612;7.510;2023-03-19T14:57:31;12.40;99.90
22698;DHT22;11516;51.612;7.510;2023-03-19T15:00:00;12.50;99.90
22698;DHT22;11516;51.612;7.510;2023-03-19T15:02:40;12.60;99.90
22698;DHT22;11516;51.612;7.510;2023-03-19T15:05:30;12.70;99.90
22698;DHT22;11516;51.612;7.510;2023-03-19T15:08:02;12.80;99.90
22698;DHT22;11516;51.612;7.510;2023-03-19T15:10:31;12.70;99.90
22698;DHT22;11516;51.612;7.510;2023-03-19T15:15:50;12.50;99.90
22698;DHT22;11516;51.612;7.510;2023-03-19T15:18:20;12.60;99.90
22698;DHT22;11516;51.612;7.510;2023-03-19T15:20:51;13.10;99.90
22698;DHT22;11516;51.612;7.510;2023-03-19T15:23:25;13.60;99.90
22698;DHT22;11516;51.612;7.510;2023-03-19T15:25:59;13.40;99.90
22698;DHT22;11516;51.612;7.510;2023-03-19T15:28:31;13.10;99.90
22698;DHT22;11516;51.612;7.510;2023-03-19T15:31:02;13.10;99.90
22698;DHT22;11516;51.612;7.510;2023-03-19T15:33:34;13.10;99.90
22698;DHT22;11516;51.612;7.510;2023-03-19T15:36:11;13.10;99.90
22698;DHT22;11516;51.612;7.510;2023-03-19T15:38:46;13.00;99.90
22698;DHT22;11516;51.612;7.510;2023-03-19T15:41:13;12.80;99.90
22698;DHT22;11516;51.612;7.510;2023-03-19T15:43:40;12.90;99.90
22698;DHT22;11516;51.612;7.510;2023-03-19T15:46:11;12.70;99.90
22698;DHT22;11516;51.612;7.510;2023-03-19T15:49:01;12.70;99.90
22698;DHT22;11516;51.612;7.510;2023-03-19T15:51:28;12.70;99.90
22698;DHT22;11516;51.612;7.510;2023-03-19T15:53:55;12.80;99.90
22698;DHT22;11516;51.612;7.510;2023-03-19T15:56:22;12.80;99.90
22698;DHT22;11516;51.612;7.510;2023-03-19T15:58:49;12.80;99.90
22698;DHT22;11516;51.612;7.510;2023-03-19T16:01:17;12.80;99.90
22698;DHT22;11516;51.612;7.510;2023-03-19T16:03:48;12.60;99.90
22698;DHT22;11516;51.612;7.510;2023-03-19T16:06:20;12.60;99.90
22698;DHT22;11516;51.612;7.510;2023-03-19T16:08:49;12.70;99.90
22698;DHT22;11516;51.612;7.510;2023-03-19T16:11:29;12.60;99.90
22698;DHT22;11516;51.612;7.510;2023-03-19T16:16:39;12.70;99.90
22698;DHT22;11516;51.612;7.510;2023-03-19T16:19:29;12.60;99.90
22698;DHT22;11516;51.612;7.510;2023-03-19T16:21:56;12.60;99.90
22698;DHT22;11516;51.612;7.510;2023-03-19T16:24:32;12.50;99.90
22698;DHT22;11516;51.612;7.510;2023-03-19T16:27:06;12.60;99.90
22698;DHT22;11516;51.612;7.510;2023-03-19T16:29:43;12.50;99.90
22698;DHT22;11516;51.612;7.510;2023-03-19T16:32:24;12.50;99.90
22698;DHT22;11516;51.612;7.510;2023-03-19T16:34:55;12.40;99.90
22698;DHT22;11516;51.612;7.510;2023-03-19T16:37:43;12.30;99.90
22698;DHT22;11516;51.612;7.510;2023-03-19T16:42:45;12.40;99.90
22698;DHT22;11516;51.612;7.510;2023-03-19T16:47:43;12.40;99.90
22698;DHT22;11516;51.612;7.510;2023-03-19T16:50:10;12.40;99.90
22698;DHT22;11516;51.612;7.510;2023-03-19T16:52:37;12.50;99.90
22698;DHT22;11516;51.612;7.510;2023-03-19T16:55:04;12.40;99.90
22698;DHT22;11516;51.612;7.510;2023-03-19T16:57:36;12.30;99.90
22698;DHT22;11516;51.612;7.510;2023-03-19T17:00:03;12.40;99.90
22698;DHT22;11516;51.612;7.510;2023-03-19T17:02:29;12.40;99.90
22698;DHT22;11516;51.612;7.510;2023-03-19T17:04:54;12.40;99.90
22698;DHT22;11516;51.612;7.510;2023-03-19T17:07:20;12.40;99.90
22698;DHT22;11516;51.612;7.510;2023-03-19T17:09:45;12.40;99.90
22698;DHT22;11516;51.612;7.510;2023-03-19T17:12:14;12.30;99.90
22698;DHT22;11516;51.612;7.510;2023-03-19T17:14:41;12.30;99.90
22698;DHT22;11516;51.612;7.510;2023-03-19T17:17:18;12.20;99.90
22698;DHT22;11516;51.612;7.510;2023-03-19T17:19:44;12.10;99.90
22698;DHT22;11516;51.612;7.510;2023-03-19T17:22:11;12.10;99.90
22698;DHT22;11516;51.612;7.510;2023-03-19T17:24:38;12.10;99.90
22698;DHT22;11516;51.612;7.510;2023-03-19T17:27:04;12.10;99.90
22698;DHT22;11516;51.612;7.510;2023-03-19T17:29:30;12.20;99.90
22698;DHT22;11516;51.612;7.510;2023-03-19T17:31:57;12.10;99.90
22698;DHT22;11516;51.612;7.510;2023-03-19T17:34:26;12.20;99.90